createdAt,value
2023-05-22T00:00:09.445Z,17.88
2023-05-22T00:02:38.897Z,17.95
2023-05-22T00:05:07.827Z,18.01
2023-05-22T00:07:35.558Z,18.02
2023-05-22T00:10:03.319Z,18.06
2023-05-22T00:12:31.047Z,18.06
2023-05-22T00:15:00.261Z,18.04
2023-05-22T00:17:30.793Z,18.05
2023-05-22T00:20:03.826Z,18.07
2023-05-22T00:22:35.559Z,18.07
2023-05-22T00:25:03.886Z,18.08
2023-05-22T00:27:31.760Z,18.07
2023-05-22T00:30:01.284Z,18.05
2023-05-22T00:32:29.191Z,18.03
2023-05-22T00:34:57.002Z,18.01
2023-05-22T00:37:25.443Z,18.00
2023-05-22T00:39:53.374Z,17.98
2023-05-22T00:42:21.256Z,18.00
2023-05-22T00:44:49.889Z,17.90
2023-05-22T00:47:18.925Z,17.92
2023-05-22T00:49:47.682Z,17.85
2023-05-22T00:52:17.761Z,17.84
2023-05-22T00:54:45.588Z,17.84
2023-05-22T00:57:13.850Z,17.81
2023-05-22T00:59:44.866Z,17.77
2023-05-22T01:02:13.496Z,17.68
2023-05-22T01:04:45.553Z,17.71
2023-05-22T01:07:13.322Z,17.67
2023-05-22T01:09:41.235Z,17.64
2023-05-22T01:12:17.456Z,17.62
2023-05-22T01:14:54.249Z,17.56
2023-05-22T01:17:34.868Z,17.50
2023-05-22T01:20:15.310Z,17.35
2023-05-22T01:23:27.425Z,17.38
2023-05-22T01:26:08.730Z,17.28
2023-05-22T01:28:49.498Z,17.28
2023-05-22T01:31:20.319Z,17.30
2023-05-22T01:33:52.427Z,17.18
2023-05-22T01:36:23.409Z,17.13
2023-05-22T01:38:52.921Z,17.14
2023-05-22T01:41:21.589Z,17.10
2023-05-22T01:43:49.467Z,17.03
2023-05-22T01:46:18.754Z,17.02
2023-05-22T01:48:46.549Z,16.99
2023-05-22T01:51:19.296Z,17.01
2023-05-22T01:53:57.701Z,16.98
2023-05-22T01:56:31.825Z,16.98
2023-05-22T01:59:10.570Z,16.92
2023-05-22T02:01:42.503Z,16.87
2023-05-22T02:04:13.839Z,16.76
2023-05-22T02:06:42.497Z,16.77
2023-05-22T02:09:11.847Z,16.82
2023-05-22T02:11:41.270Z,16.77
2023-05-22T02:14:12.199Z,16.81
2023-05-22T02:16:42.274Z,16.72
2023-05-22T02:19:15.459Z,16.73
2023-05-22T02:21:43.820Z,16.71
2023-05-22T02:24:12.082Z,16.76
2023-05-22T02:26:40.553Z,16.66
2023-05-22T02:29:08.596Z,16.69
2023-05-22T02:31:36.511Z,16.78
2023-05-22T02:34:06.695Z,16.63
2023-05-22T02:36:35.128Z,16.65
2023-05-22T02:39:02.858Z,16.59
2023-05-22T02:41:30.788Z,16.62
2023-05-22T02:44:06.123Z,16.60
2023-05-22T02:46:33.936Z,16.61
2023-05-22T02:49:03.692Z,16.65
2023-05-22T02:51:40.281Z,16.55
2023-05-22T02:54:07.941Z,16.53
2023-05-22T02:56:35.665Z,16.53
2023-05-22T02:59:03.753Z,16.47
2023-05-22T03:01:31.496Z,16.55
2023-05-22T03:03:59.452Z,16.54
2023-05-22T03:06:27.230Z,16.41
2023-05-22T03:08:56.504Z,16.39
2023-05-22T03:11:24.355Z,16.40
2023-05-22T03:13:54.268Z,16.41
2023-05-22T03:16:22.262Z,16.41
2023-05-22T03:18:51.829Z,16.32
2023-05-22T03:21:20.793Z,16.29
2023-05-22T03:23:49.764Z,16.35
2023-05-22T03:26:20.367Z,16.35
2023-05-22T03:28:48.223Z,16.33
2023-05-22T03:31:16.045Z,16.33
2023-05-22T03:33:45.412Z,16.29
2023-05-22T03:36:13.205Z,16.23
2023-05-22T03:38:41.417Z,16.22
2023-05-22T03:41:09.367Z,16.20
2023-05-22T03:43:39.413Z,16.16
2023-05-22T03:46:09.638Z,16.16
2023-05-22T03:48:37.691Z,16.16
2023-05-22T03:51:08.097Z,16.14
2023-05-22T03:53:35.806Z,16.13
2023-05-22T03:56:04.191Z,16.05
2023-05-22T03:58:31.979Z,16.09
2023-05-22T04:01:01.383Z,16.15
2023-05-22T04:03:29.816Z,16.07
2023-05-22T04:05:58.629Z,16.02
2023-05-22T04:08:26.418Z,16.00
2023-05-22T04:10:54.652Z,16.04
2023-05-22T04:13:22.441Z,15.97
2023-05-22T04:15:52.717Z,16.03
2023-05-22T04:18:23.542Z,16.11
2023-05-22T04:20:51.874Z,16.15
2023-05-22T04:23:21.748Z,16.25
2023-05-22T04:25:49.604Z,16.27
2023-05-22T04:28:18.280Z,16.31
2023-05-22T04:30:46.565Z,16.37
2023-05-22T04:33:14.398Z,16.39
2023-05-22T04:35:44.350Z,16.37
2023-05-22T04:38:12.105Z,16.32
2023-05-22T04:40:40.574Z,16.45
2023-05-22T04:43:08.710Z,16.46
2023-05-22T04:45:36.514Z,16.41
2023-05-22T04:48:04.415Z,16.50
2023-05-22T04:50:32.832Z,16.47
2023-05-22T04:53:04.482Z,16.59
2023-05-22T04:55:34.210Z,16.54
2023-05-22T04:58:02.918Z,16.62
2023-05-22T05:00:31.190Z,16.59
2023-05-22T05:03:00.640Z,16.72
2023-05-22T05:05:28.907Z,16.83
2023-05-22T05:07:57.205Z,16.82
2023-05-22T05:10:26.828Z,16.82
2023-05-22T05:12:56.059Z,16.92
2023-05-22T05:15:24.553Z,16.96
2023-05-22T05:17:52.527Z,17.04
2023-05-22T05:20:20.971Z,17.13
2023-05-22T05:22:48.815Z,17.16
2023-05-22T05:25:16.659Z,17.34
2023-05-22T05:27:46.615Z,17.42
2023-05-22T05:30:14.745Z,17.43
2023-05-22T05:32:42.563Z,17.33
2023-05-22T05:35:10.945Z,17.49
2023-05-22T05:37:38.876Z,17.70
2023-05-22T05:40:08.275Z,17.71
2023-05-22T05:42:36.258Z,17.82
2023-05-22T05:45:08.084Z,17.88
2023-05-22T05:47:35.829Z,17.84
2023-05-22T05:50:03.747Z,17.88
2023-05-22T05:52:32.737Z,18.00
2023-05-22T05:55:00.889Z,18.12
2023-05-22T05:57:28.892Z,18.01
2023-05-22T05:59:57.136Z,18.27
2023-05-22T06:02:26.337Z,18.33
2023-05-22T06:04:55.969Z,18.43
2023-05-22T06:07:24.424Z,18.47
2023-05-22T06:09:52.554Z,18.59
2023-05-22T06:12:20.304Z,18.77
2023-05-22T06:14:48.500Z,18.95
2023-05-22T06:17:16.253Z,19.11
2023-05-22T06:19:45.638Z,19.26
2023-05-22T06:22:13.374Z,19.13
2023-05-22T06:24:41.178Z,19.15
2023-05-22T06:27:09.392Z,19.40
2023-05-22T06:29:37.068Z,19.45
2023-05-22T06:32:05.050Z,19.50
2023-05-22T06:34:32.801Z,19.83
2023-05-22T06:37:01.924Z,19.68
2023-05-22T06:39:31.138Z,19.91
2023-05-22T06:41:59.803Z,20.21
2023-05-22T06:44:27.545Z,20.38
2023-05-22T06:46:55.526Z,20.59
2023-05-22T06:49:23.240Z,20.73
2023-05-22T06:51:51.184Z,21.03
2023-05-22T06:54:21.464Z,21.27
2023-05-22T06:56:49.391Z,21.16
2023-05-22T06:59:17.246Z,21.51
2023-05-22T07:01:45.185Z,21.42
2023-05-22T07:04:13.411Z,22.01
2023-05-22T07:06:41.679Z,22.19
2023-05-22T07:09:10.600Z,22.00
2023-05-22T07:11:39.896Z,22.58
2023-05-22T07:14:07.963Z,23.34
2023-05-22T07:16:36.905Z,23.28
2023-05-22T07:19:04.818Z,25.14
2023-05-22T07:21:32.693Z,26.97
2023-05-22T07:24:02.989Z,28.45
2023-05-22T07:26:31.359Z,29.20
2023-05-22T07:29:01.106Z,30.16
2023-05-22T07:31:28.937Z,32.46
2023-05-22T07:33:56.673Z,29.41
2023-05-22T07:36:24.452Z,29.62
2023-05-22T07:38:52.177Z,28.75
2023-05-22T07:41:19.943Z,30.66
2023-05-22T07:43:47.684Z,31.26
2023-05-22T07:46:16.774Z,32.55
2023-05-22T07:48:45.264Z,32.95
2023-05-22T07:51:13.787Z,34.04
2023-05-22T07:53:41.601Z,35.40
2023-05-22T07:56:11.252Z,34.42
2023-05-22T07:58:40.077Z,35.12
2023-05-22T08:01:09.597Z,33.53
2023-05-22T08:03:39.135Z,30.90
2023-05-22T08:06:07.811Z,33.30
2023-05-22T08:08:35.571Z,33.65
2023-05-22T08:11:04.712Z,36.88
2023-05-22T08:13:32.998Z,35.56
2023-05-22T08:16:01.513Z,33.37
2023-05-22T08:18:30.143Z,35.15
2023-05-22T08:21:00.664Z,33.00
2023-05-22T08:23:28.443Z,32.38
2023-05-22T08:25:56.248Z,33.53
2023-05-22T08:28:24.198Z,33.95
2023-05-22T08:30:52.034Z,34.29
2023-05-22T08:33:20.101Z,35.15
2023-05-22T08:35:47.879Z,35.29
2023-05-22T08:38:18.320Z,35.96
2023-05-22T08:40:50.171Z,37.16
2023-05-22T08:43:18.031Z,37.59
2023-05-22T08:45:45.975Z,35.13
2023-05-22T08:48:14.694Z,34.66
2023-05-22T08:50:43.997Z,34.61
2023-05-22T08:53:14.852Z,36.74
2023-05-22T08:55:43.971Z,36.80
2023-05-22T08:58:12.510Z,36.93
2023-05-22T09:00:41.170Z,32.62
2023-05-22T09:03:10.158Z,32.59
2023-05-22T09:05:39.212Z,35.83
2023-05-22T09:08:19.223Z,33.94
2023-05-22T09:10:50.025Z,36.58
2023-05-22T09:13:26.230Z,34.25
2023-05-22T09:15:54.362Z,34.34
2023-05-22T09:18:22.577Z,36.18
2023-05-22T09:20:51.684Z,37.05
2023-05-22T09:23:19.875Z,35.31
2023-05-22T09:25:49.093Z,35.67
2023-05-22T09:28:16.831Z,36.59
2023-05-22T09:30:46.772Z,33.60
2023-05-22T09:33:14.503Z,35.02
2023-05-22T09:35:43.912Z,34.96
2023-05-22T09:38:13.104Z,32.57
2023-05-22T09:40:41.419Z,36.12
2023-05-22T09:43:11.393Z,35.12
2023-05-22T09:45:40.212Z,36.41
2023-05-22T09:48:10.590Z,36.61
2023-05-22T09:50:40.099Z,36.77
2023-05-22T09:53:09.341Z,35.87
2023-05-22T09:55:38.077Z,33.79
2023-05-22T09:58:09.214Z,33.13
2023-05-22T10:00:39.156Z,33.53
2023-05-22T10:03:12.271Z,32.46
2023-05-22T10:05:45.067Z,32.05
2023-05-22T10:08:18.465Z,33.37
2023-05-22T10:10:51.410Z,31.81
2023-05-22T10:13:20.310Z,32.81
2023-05-22T10:15:50.783Z,31.70
2023-05-22T10:18:19.166Z,31.60
2023-05-22T10:20:47.812Z,30.98
2023-05-22T10:23:16.290Z,30.52
2023-05-22T10:25:45.320Z,32.02
2023-05-22T10:28:20.425Z,31.11
2023-05-22T10:30:57.485Z,32.14
2023-05-22T10:33:29.619Z,32.72
2023-05-22T10:36:00.262Z,33.19
2023-05-22T10:38:47.008Z,32.66
2023-05-22T10:41:15.351Z,32.61
2023-05-22T10:43:43.818Z,30.81
2023-05-22T10:46:14.189Z,31.62
2023-05-22T10:48:47.557Z,31.42
2023-05-22T10:51:16.175Z,30.47
2023-05-22T10:53:45.311Z,31.12
2023-05-22T10:56:14.306Z,30.91
2023-05-22T10:58:45.771Z,31.52
2023-05-22T11:01:16.825Z,31.14
2023-05-22T11:03:58.672Z,31.12
2023-05-22T11:06:38.365Z,31.64
2023-05-22T11:09:19.810Z,31.11
2023-05-22T11:11:48.054Z,30.40
2023-05-22T11:14:18.740Z,30.54
2023-05-22T11:16:48.074Z,29.90
2023-05-22T11:21:48.290Z,30.67
2023-05-22T11:24:18.073Z,30.50
2023-05-22T11:27:01.643Z,29.93
2023-05-22T11:29:30.664Z,30.26
2023-05-22T11:32:00.767Z,31.04
2023-05-22T11:34:29.119Z,30.22
2023-05-22T11:37:00.657Z,30.11
2023-05-22T11:39:28.733Z,30.45
2023-05-22T11:41:56.562Z,30.32
2023-05-22T11:44:24.408Z,31.35
2023-05-22T11:46:52.687Z,29.73
2023-05-22T11:49:24.082Z,30.76
2023-05-22T11:51:53.029Z,31.22
2023-05-22T11:54:22.260Z,30.55
2023-05-22T11:56:50.098Z,30.16
2023-05-22T11:59:17.974Z,30.21
2023-05-22T12:01:45.738Z,30.58
2023-05-22T12:04:13.947Z,30.73
2023-05-22T12:06:43.508Z,30.61
2023-05-22T12:09:11.626Z,30.72
2023-05-22T12:11:39.664Z,30.89
2023-05-22T12:14:07.734Z,30.83
2023-05-22T12:16:37.157Z,30.88
2023-05-22T12:19:09.041Z,30.55
2023-05-22T12:21:37.626Z,30.77
2023-05-22T12:24:07.517Z,30.81
2023-05-22T12:26:35.323Z,30.45
2023-05-22T12:29:03.462Z,30.62
2023-05-22T12:31:35.906Z,29.55
2023-05-22T12:34:05.822Z,29.42
2023-05-22T12:36:36.195Z,28.90
2023-05-22T12:39:10.415Z,29.07
2023-05-22T12:41:38.327Z,28.89
2023-05-22T12:44:06.337Z,29.01
2023-05-22T12:46:35.114Z,28.89
2023-05-22T12:49:03.497Z,28.44
2023-05-22T12:51:33.220Z,28.50
2023-05-22T12:54:01.878Z,28.06
2023-05-22T12:56:31.782Z,28.33
2023-05-22T12:58:59.667Z,28.33
2023-05-22T13:01:27.658Z,27.60
2023-05-22T13:03:55.504Z,27.88
2023-05-22T13:06:23.278Z,27.96
2023-05-22T13:08:51.070Z,27.91
2023-05-22T13:11:20.135Z,27.95
2023-05-22T13:13:49.298Z,28.26
2023-05-22T13:16:17.074Z,28.08
2023-05-22T13:18:44.970Z,27.85
2023-05-22T13:21:13.556Z,27.58
2023-05-22T13:23:41.333Z,27.60
2023-05-22T13:26:09.324Z,27.33
2023-05-22T13:28:37.033Z,27.32
2023-05-22T13:31:06.719Z,27.17
2023-05-22T13:33:34.690Z,27.14
2023-05-22T13:36:02.464Z,27.30
2023-05-22T13:38:32.862Z,27.51
2023-05-22T13:41:00.902Z,27.29
2023-05-22T13:43:28.831Z,27.26
2023-05-22T13:45:56.823Z,27.33
2023-05-22T13:48:29.300Z,27.30
2023-05-22T13:50:57.048Z,27.22
2023-05-22T13:53:24.876Z,27.03
2023-05-22T13:55:52.640Z,27.07
2023-05-22T13:58:20.827Z,26.98
2023-05-22T14:00:48.696Z,27.04
2023-05-22T14:03:17.858Z,26.97
2023-05-22T14:05:47.157Z,27.15
2023-05-22T14:08:14.938Z,27.11
2023-05-22T14:10:43.032Z,27.13
2023-05-22T14:13:11.052Z,27.06
2023-05-22T14:15:39.069Z,27.03
2023-05-22T14:18:07.034Z,27.14
2023-05-22T14:20:34.876Z,27.12
2023-05-22T14:23:03.983Z,27.25
2023-05-22T14:25:31.915Z,27.48
2023-05-22T14:27:59.891Z,27.82
2023-05-22T14:30:27.734Z,27.85
2023-05-22T14:32:55.504Z,27.94
2023-05-22T14:35:25.063Z,27.95
2023-05-22T14:37:52.877Z,27.82
2023-05-22T14:40:22.452Z,27.79
2023-05-22T14:42:52.512Z,27.73
2023-05-22T14:45:21.853Z,28.11
2023-05-22T14:47:49.704Z,28.02
2023-05-22T14:50:20.390Z,27.83
2023-05-22T14:52:49.120Z,27.72
2023-05-22T14:55:17.928Z,27.88
2023-05-22T14:57:47.077Z,27.87
2023-05-22T15:00:16.213Z,27.93
2023-05-22T15:02:44.030Z,27.80
2023-05-22T15:05:12.928Z,27.65
2023-05-22T15:07:45.571Z,27.62
2023-05-22T15:10:18.253Z,27.52
2023-05-22T15:12:48.468Z,27.37
2023-05-22T15:15:23.769Z,27.43
2023-05-22T15:17:51.615Z,27.25
2023-05-22T15:20:20.275Z,27.08
2023-05-22T15:22:48.442Z,27.00
2023-05-22T15:25:16.256Z,27.00
2023-05-22T15:27:44.449Z,26.97
2023-05-22T15:30:16.838Z,26.92
2023-05-22T15:32:45.383Z,26.81
2023-05-22T15:35:16.179Z,26.83
2023-05-22T15:37:44.351Z,26.80
2023-05-22T15:40:16.558Z,26.77
2023-05-22T15:42:47.736Z,26.83
2023-05-22T15:45:18.195Z,26.95
2023-05-22T15:47:47.917Z,27.08
2023-05-22T15:50:21.459Z,27.11
2023-05-22T15:52:50.726Z,27.13
2023-05-22T15:55:18.848Z,27.13
2023-05-22T15:57:50.924Z,27.21
2023-05-22T16:00:23.972Z,27.31
2023-05-22T16:02:51.854Z,27.35
2023-05-22T16:05:19.966Z,27.33
2023-05-22T16:07:47.766Z,27.21
2023-05-22T16:10:15.522Z,27.15
2023-05-22T16:12:43.480Z,26.97
2023-05-22T16:15:12.019Z,26.92
2023-05-22T16:17:41.164Z,26.91
2023-05-22T16:20:10.086Z,26.75
2023-05-22T16:22:48.028Z,26.66
2023-05-22T16:25:16.859Z,26.57
2023-05-22T16:27:44.723Z,26.49
2023-05-22T16:30:14.835Z,26.35
2023-05-22T16:32:44.351Z,26.26
2023-05-22T16:35:12.572Z,26.20
2023-05-22T16:37:40.720Z,26.11
2023-05-22T16:40:10.218Z,26.06
2023-05-22T16:42:39.267Z,26.02
2023-05-22T16:45:08.560Z,25.99
2023-05-22T16:47:36.327Z,25.94
2023-05-22T16:50:07.030Z,25.89
2023-05-22T16:52:35.832Z,25.77
2023-05-22T16:55:03.574Z,25.62
2023-05-22T16:57:31.414Z,25.48
2023-05-22T17:00:02.416Z,25.39
2023-05-22T17:02:30.354Z,25.39
2023-05-22T17:04:58.334Z,25.47
2023-05-22T17:07:31.722Z,25.48
2023-05-22T17:10:01.891Z,25.65
2023-05-22T17:12:29.657Z,25.77
2023-05-22T17:14:57.374Z,25.88
2023-05-22T17:17:25.184Z,25.79
2023-05-22T17:19:53.397Z,25.67
2023-05-22T17:22:21.465Z,25.66
2023-05-22T17:24:51.703Z,25.67
2023-05-22T17:27:34.386Z,25.59
2023-05-22T17:30:04.752Z,25.53
2023-05-22T17:32:32.998Z,25.47
2023-05-22T17:35:02.807Z,25.42
2023-05-22T17:37:30.624Z,25.38
2023-05-22T17:40:02.490Z,25.44
2023-05-22T17:42:30.264Z,25.42
2023-05-22T17:45:00.392Z,25.41
2023-05-22T17:47:29.106Z,25.37
2023-05-22T17:49:58.919Z,25.25
2023-05-22T17:52:26.915Z,25.30
2023-05-22T17:54:55.994Z,25.28
2023-05-22T17:57:25.954Z,25.17
2023-05-22T17:59:56.193Z,25.16
2023-05-22T18:02:24.694Z,25.06
2023-05-22T18:04:52.526Z,25.00
2023-05-22T18:07:20.353Z,25.03
2023-05-22T18:09:48.055Z,25.02
2023-05-22T18:12:31.036Z,25.03
2023-05-22T18:15:00.932Z,24.97
2023-05-22T18:17:28.763Z,24.82
2023-05-22T18:19:56.487Z,24.71
2023-05-22T18:22:25.562Z,24.57
2023-05-22T18:24:53.401Z,24.46
2023-05-22T18:27:21.256Z,24.31
2023-05-22T18:29:50.408Z,24.15
2023-05-22T18:32:19.864Z,24.02
2023-05-22T18:34:48.654Z,23.91
2023-05-22T18:37:16.513Z,23.87
2023-05-22T18:39:44.240Z,23.76
2023-05-22T18:42:13.318Z,23.72
2023-05-22T18:44:41.138Z,23.63
2023-05-22T18:47:08.992Z,23.61
2023-05-22T18:49:38.266Z,23.58
2023-05-22T18:52:06.549Z,23.51
2023-05-22T18:54:34.255Z,23.47
2023-05-22T18:57:01.995Z,23.39
2023-05-22T18:59:29.696Z,23.33
2023-05-22T19:01:57.413Z,23.23
2023-05-22T19:04:25.130Z,23.15
2023-05-22T19:06:54.253Z,23.07
2023-05-22T19:09:22.185Z,22.99
2023-05-22T19:11:50.068Z,22.88
2023-05-22T19:14:17.773Z,22.85
2023-05-22T19:16:45.667Z,22.57
2023-05-22T19:19:14.796Z,22.54
2023-05-22T19:21:42.674Z,22.53
2023-05-22T19:24:11.813Z,22.65
2023-05-22T19:26:39.553Z,22.72
2023-05-22T19:29:07.268Z,22.89
2023-05-22T19:31:35.725Z,22.88
2023-05-22T19:34:03.657Z,22.98
2023-05-22T19:36:31.775Z,22.99
2023-05-22T19:38:59.523Z,22.95
2023-05-22T19:41:28.681Z,22.97
2023-05-22T19:43:56.386Z,22.99
2023-05-22T19:46:24.226Z,22.90
2023-05-22T19:48:52.240Z,22.89
2023-05-22T19:51:21.577Z,22.82
2023-05-22T19:53:52.155Z,22.77
2023-05-22T19:56:20.004Z,22.72
2023-05-22T19:58:49.108Z,22.66
2023-05-22T20:01:19.194Z,22.63
2023-05-22T20:03:47.329Z,22.55
2023-05-22T20:06:15.451Z,22.52
2023-05-22T20:08:44.187Z,22.46
2023-05-22T20:11:13.405Z,22.43
2023-05-22T20:13:41.067Z,22.34
2023-05-22T20:16:14.795Z,22.32
2023-05-22T20:18:44.392Z,22.22
2023-05-22T20:21:14.499Z,22.18
2023-05-22T20:26:12.056Z,22.10
2023-05-22T20:28:40.110Z,22.05
2023-05-22T20:31:15.707Z,21.98
2023-05-22T20:33:43.614Z,21.87
2023-05-22T20:36:15.176Z,21.76
2023-05-22T20:38:45.465Z,21.73
2023-05-22T20:41:14.842Z,21.65
2023-05-22T20:43:44.868Z,21.58
2023-05-22T20:46:16.285Z,21.58
2023-05-22T20:48:54.210Z,21.58
2023-05-22T20:51:32.662Z,21.51
2023-05-22T20:54:02.352Z,21.39
2023-05-22T20:56:37.833Z,21.38
2023-05-22T20:59:05.837Z,21.33
2023-05-22T21:01:35.987Z,21.32
2023-05-22T21:04:05.169Z,21.22
2023-05-22T21:06:33.169Z,21.20
2023-05-22T21:09:04.145Z,21.15
2023-05-22T21:11:32.285Z,21.08
2023-05-22T21:14:00.464Z,21.06
2023-05-22T21:16:29.335Z,20.96
2023-05-22T21:19:02.279Z,20.93
2023-05-22T21:21:30.163Z,20.88
2023-05-22T21:23:58.735Z,20.74
2023-05-22T21:26:27.823Z,20.72
2023-05-22T21:28:58.174Z,20.68
2023-05-22T21:31:26.384Z,20.62
2023-05-22T21:33:55.093Z,20.55
2023-05-22T21:36:26.114Z,20.51
2023-05-22T21:38:56.487Z,20.43
2023-05-22T21:41:27.535Z,20.49
2023-05-22T21:43:56.294Z,20.48
2023-05-22T21:46:24.335Z,20.48
2023-05-22T21:48:56.176Z,20.45
2023-05-22T21:51:26.850Z,20.47
2023-05-22T21:53:54.961Z,20.41
2023-05-22T21:56:24.839Z,20.36
2023-05-22T21:58:52.938Z,20.38
2023-05-22T22:01:22.132Z,20.38
2023-05-22T22:03:51.299Z,20.24
2023-05-22T22:06:19.129Z,20.19
2023-05-22T22:08:48.989Z,20.22
2023-05-22T22:11:16.806Z,20.25
2023-05-22T22:13:44.710Z,20.14
2023-05-22T22:16:12.482Z,20.12
2023-05-22T22:18:40.912Z,19.96
2023-05-22T22:21:08.620Z,19.89
2023-05-22T22:23:36.396Z,19.90
2023-05-22T22:26:05.574Z,19.84
2023-05-22T22:28:33.350Z,19.76
2023-05-22T22:31:01.436Z,19.74
2023-05-22T22:33:30.431Z,19.80
2023-05-22T22:35:58.678Z,19.91
2023-05-22T22:38:26.807Z,19.86
2023-05-22T22:40:54.753Z,19.81
2023-05-22T22:43:23.872Z,19.81
2023-05-22T22:45:55.800Z,19.84
2023-05-22T22:48:23.962Z,19.89
2023-05-22T22:50:52.453Z,19.79
2023-05-22T22:53:20.352Z,19.69
2023-05-22T22:55:49.312Z,19.61
2023-05-22T22:58:18.849Z,19.56
2023-05-22T23:00:48.210Z,19.48
2023-05-22T23:03:16.030Z,19.43
2023-05-22T23:05:45.376Z,19.43
2023-05-22T23:08:13.465Z,19.43
2023-05-22T23:10:41.509Z,19.41
2023-05-22T23:13:09.254Z,19.36
2023-05-22T23:15:39.478Z,19.32
2023-05-22T23:18:08.866Z,19.16
2023-05-22T23:20:37.110Z,19.16
2023-05-22T23:23:04.795Z,19.24
2023-05-22T23:25:32.941Z,19.16
2023-05-22T23:28:01.815Z,19.15
2023-05-22T23:30:29.821Z,19.10
2023-05-22T23:32:58.637Z,19.12
2023-05-22T23:35:28.004Z,18.94
2023-05-22T23:37:56.234Z,18.89
2023-05-22T23:40:26.018Z,18.82
2023-05-22T23:42:53.764Z,18.90
2023-05-22T23:45:21.692Z,18.74
2023-05-22T23:47:49.649Z,18.78
2023-05-22T23:50:17.479Z,18.87
2023-05-22T23:52:48.139Z,18.88
2023-05-22T23:55:16.258Z,18.85
2023-05-22T23:57:46.002Z,18.85
